ADDS METAR Data INFO
IDs: Format: Raw Decoded Include TAF

Data at: 2027 UTC 20 Jul 2018

KHII 202015Z AUTO 26007KT 170V270 10SM CLR 41/15 A2983 RMK AO2
KHII 201955Z AUTO 19005KT 190V250 10SM CLR 40/15 A2984 RMK AO2
KHII 201935Z AUTO 25007KT 10SM CLR 40/15 A2985 RMK AO2
KHII 201915Z AUTO 19006KT 10SM CLR 40/14 A2985 RMK AO2
KHII 201855Z AUTO 23007KT 10SM CLR 39/13 A2986 RMK AO2
KHII 201835Z AUTO 21006KT 10SM CLR 39/14 A2986 RMK AO2
KHII 201815Z AUTO 21005KT 190V250 10SM CLR 38/15 A2987 RMK AO2
KHII 201755Z AUTO 18004KT 10SM CLR 38/15 A2987 RMK AO2
KHII 201735Z AUTO 21008KT 10SM CLR 38/15 A2987 RMK AO2
KHII 201715Z AUTO 24005KT 10SM CLR 37/16 A2987 RMK AO2
KHII 201655Z AUTO 22006KT 10SM CLR 37/16 A2987 RMK AO2
KHII 201635Z AUTO 00000KT 10SM CLR 37/16 A2987 RMK AO2
KHII 201615Z AUTO 00000KT 10SM CLR 36/16 A2987 RMK AO2
KHII 201555Z AUTO 16005KT 10SM CLR 36/16 A2987 RMK AO2
KHII 201535Z AUTO 18006KT 10SM CLR 35/17 A2987 RMK AO2
KHII 201515Z AUTO 08003KT 10SM CLR 35/15 A2987 RMK AO2
KHII 201455Z AUTO 00000KT 10SM CLR 35/15 A2987 RMK AO2
KHII 201435Z AUTO 00000KT 10SM CLR 33/15 A2986 RMK AO2
KHII 201415Z AUTO 00000KT 10SM CLR 33/16 A2986 RMK AO2
KHII 201355Z AUTO 33003KT 10SM CLR 33/16 A2985 RMK AO2
KHII 201335Z AUTO 00000KT 10SM CLR 33/15 A2985 RMK AO2
KHII 201315Z AUTO 27004KT 10SM CLR 33/15 A2984 RMK AO2
KHII 201255Z AUTO 00000KT 10SM CLR 33/15 A2984 RMK AO2
KHII 201235Z AUTO 01004KT 10SM CLR 33/15 A2984 RMK AO2
KHII 201215Z AUTO 36003KT 10SM CLR 33/15 A2983 RMK AO2
KHII 201155Z AUTO 34004KT 10SM CLR 33/15 A2983 RMK AO2
KHII 201135Z AUTO 32004KT 10SM CLR 34/15 A2983 RMK AO2
KHII 201115Z AUTO 34005KT 10SM CLR 34/15 A2983 RMK AO2
KHII 201055Z AUTO 35006KT 10SM CLR 34/15 A2984 RMK AO2
KHII 201035Z AUTO 32007KT 10SM CLR 34/15 A2983 RMK AO2
KHII 201015Z AUTO 31008KT 10SM CLR 34/15 A2983 RMK AO2
KHII 200955Z AUTO 32009KT 10SM CLR 35/15 A2983 RMK AO2
KHII 200935Z AUTO 32008KT 10SM CLR 35/15 A2983 RMK AO2
KHII 200915Z AUTO 00000KT 10SM CLR 35/16 A2983 RMK AO2
KHII 200855Z AUTO 02003KT 10SM CLR 35/15 A2983 RMK AO2
KHII 200835Z AUTO 11003KT 10SM CLR 35/16 A2983 RMK AO2
KHII 200815Z AUTO 00000KT 10SM CLR 35/16 A2984 RMK AO2
KHII 200755Z AUTO 12003KT 10SM CLR 36/16 A2983 RMK AO2
KHII 200735Z AUTO 00000KT 10SM CLR 36/16 A2983 RMK AO2
KHII 200715Z AUTO 15004KT 10SM CLR 37/16 A2983 RMK AO2
KHII 200655Z AUTO 16005KT 10SM CLR 37/16 A2983 RMK AO2
KHII 200635Z AUTO 15006KT 10SM CLR 37/16 A2983 RMK AO2
KHII 200615Z AUTO 18003KT 10SM CLR 37/16 A2982 RMK AO2
KHII 200555Z AUTO 17006KT 10SM CLR 38/16 A2982 RMK AO2
KHII 200535Z AUTO 16007KT 10SM CLR 38/16 A2981 RMK AO2
KHII 200515Z AUTO 17008KT 10SM CLR 38/15 A2981 RMK AO2
KHII 200455Z AUTO 19008KT 10SM CLR 38/15 A2981 RMK AO2
KHII 200435Z AUTO 18007KT 10SM CLR 39/15 A2980 RMK AO2
KHII 200415Z AUTO 16006KT 10SM CLR 39/16 A2980 RMK AO2
KHII 200355Z AUTO 18008KT 10SM CLR 39/16 A2979 RMK AO2
KHII 200335Z AUTO 18008KT 10SM CLR 39/16 A2979 RMK AO2
KHII 200315Z AUTO 19007KT 10SM CLR 39/15 A2978 RMK AO2
KHII 200255Z AUTO 20007KT 10SM CLR 40/14 A2978 RMK AO2
KHII 200235Z AUTO 19009KT 10SM CLR 40/14 A2978 RMK AO2
KHII 200215Z AUTO 19007KT 10SM CLR 40/14 A2977 RMK AO2
KHII 200155Z AUTO 19007KT 10SM CLR 41/14 A2977 RMK AO2
KHII 200135Z AUTO 19007KT 10SM CLR 41/14 A2976 RMK AO2
KHII 200115Z AUTO 21008KT 10SM CLR 42/14 A2976 RMK AO2
KHII 200055Z AUTO 18009KT 10SM CLR 41/14 A2976 RMK AO2
KHII 200035Z AUTO 18007G14KT 10SM CLR 42/14 A2976 RMK AO2
KHII 200015Z AUTO 20009G15KT 140V210 10SM CLR 42/14 A2976 RMK AO2
KHII 192355Z AUTO 19005KT 10SM CLR 42/14 A2977 RMK AO2
KHII 192335Z AUTO 17010KT 140V230 10SM CLR 42/14 A2977 RMK AO2
KHII 192315Z AUTO 20007G15KT 10SM CLR 42/15 A2978 RMK AO2
KHII 192255Z AUTO 17011G16KT 10SM CLR 42/15 A2979 RMK AO2
KHII 192235Z AUTO 21006G15KT 10SM CLR 42/15 A2980 RMK AO2
KHII 192215Z AUTO 18010G15KT 180V260 10SM CLR 42/15 A2981 RMK AO2
KHII 192155Z AUTO 21008G15KT 10SM CLR 41/15 A2983 RMK AO2
KHII 192135Z AUTO 18010G17KT 10SM CLR 40/15 A2984 RMK AO2
KHII 192115Z AUTO 19005KT 10SM CLR 40/15 A2985 RMK AO2
KHII 192055Z AUTO 22008KT 10SM CLR 40/15 A2986 RMK AO2
KHII 192035Z AUTO 24008KT 180V250 10SM CLR 40/15 A2988 RMK AO2
KHII 192015Z AUTO 23005KT 10SM CLR 39/15 A2989 RMK AO2
KHII 191955Z AUTO 16006KT 140V220 10SM CLR 39/15 A2990 RMK AO2
KHII 191935Z AUTO 16009KT 140V210 10SM CLR 39/15 A2991 RMK AO2
KHII 191915Z AUTO 23005KT 10SM CLR 38/15 A2992 RMK AO2
KHII 191855Z AUTO 22005KT 10SM CLR 37/16 A2993 RMK AO2
KHII 191835Z AUTO 18010KT 10SM CLR 37/16 A2994 RMK AO2
KHII 191815Z AUTO 16006KT 10SM CLR 37/16 A2994 RMK AO2
KHII 191755Z AUTO 21009KT 10SM CLR 37/16 A2995 RMK AO2
KHII 191735Z AUTO 21007KT 10SM CLR 36/16 A2995 RMK AO2
KHII 191715Z AUTO 21008KT 10SM CLR 35/16 A2995 RMK AO2
KHII 191655Z AUTO 20005KT 10SM CLR 35/17 A2996 RMK AO2
KHII 191635Z AUTO 16005KT 10SM CLR 35/17 A2996 RMK AO2
KHII 191615Z AUTO 17008KT 10SM CLR 34/17 A2996 RMK AO2
KHII 191555Z AUTO 15005KT 10SM CLR 34/17 A2996 RMK AO2
KHII 191535Z AUTO 18005KT 10SM CLR 34/17 A2996 RMK AO2
KHII 191515Z AUTO 13006KT 10SM CLR 34/17 A2995 RMK AO2
KHII 191455Z AUTO 14010KT 10SM CLR 34/17 A2995 RMK AO2
KHII 191435Z AUTO 16009KT 10SM CLR 33/17 A2994 RMK AO2
KHII 191415Z AUTO 14008KT 10SM CLR 33/18 A2994 RMK AO2
KHII 191355Z AUTO 14007KT 10SM CLR 33/18 A2993 RMK AO2
KHII 191335Z AUTO 13007KT 10SM CLR 32/18 A2993 RMK AO2
KHII 191315Z AUTO 12006KT 10SM CLR 32/19 A2993 RMK AO2
KHII 191255Z AUTO 13006KT 10SM CLR 32/19 A2992 RMK AO2
KHII 191235Z AUTO 12006KT 10SM CLR 32/19 A2991 RMK AO2
KHII 191215Z AUTO 14006KT 10SM CLR 32/19 A2991 RMK AO2
KHII 191155Z AUTO 14006KT 10SM CLR 32/20 A2990 RMK AO2
KHII 191135Z AUTO 15004KT 10SM CLR 32/20 A2990 RMK AO2
KHII 191115Z AUTO 14004KT 10SM FEW060 32/20 A2990 RMK AO2
KHII 191055Z AUTO 14006KT 10SM CLR 33/20 A2990 RMK AO2
KHII 191035Z AUTO 13007KT 10SM CLR 33/20 A2990 RMK AO2
KHII 191015Z AUTO 14007KT 10SM CLR 33/20 A2989 RMK AO2
KHII 190955Z AUTO 14008KT 10SM CLR 33/20 A2990 RMK AO2
KHII 190935Z AUTO 17010KT 10SM CLR 33/20 A2989 RMK AO2
KHII 190915Z AUTO 13010KT 10SM CLR 33/20 A2989 RMK AO2
KHII 190855Z AUTO 13004KT 10SM CLR 34/19 A2989 RMK AO2
KHII 190835Z AUTO 23006KT 10SM CLR 34/19 A2990 RMK AO2